createdAt,value
2022-10-18T00:00:23.244Z,97931.91
2022-10-18T00:02:50.642Z,97932.63
2022-10-18T00:05:18.144Z,97929.53
2022-10-18T00:07:45.594Z,97933.72
2022-10-18T00:10:12.948Z,97926.41
2022-10-18T00:12:41.097Z,97922.69
2022-10-18T00:15:09.186Z,97920.34
2022-10-18T00:17:38.362Z,97921.09
2022-10-18T00:20:07.241Z,97910.66
2022-10-18T00:22:36.856Z,97916.88
2022-10-18T00:25:05.828Z,97906.38
2022-10-18T00:27:34.151Z,97899.41
2022-10-18T00:30:01.505Z,97904.75
2022-10-18T00:32:31.658Z,97900.50
2022-10-18T00:34:59.656Z,97892.69
2022-10-18T00:37:26.984Z,97890.78
2022-10-18T00:39:54.331Z,97882.31
2022-10-18T00:42:33.370Z,97885.31
2022-10-18T00:45:15.604Z,97890.72
2022-10-18T00:47:46.004Z,97884.00
2022-10-18T00:50:14.112Z,97875.06
2022-10-18T00:52:52.031Z,97871.00
2022-10-18T00:55:20.155Z,97872.72
2022-10-18T00:57:50.245Z,97869.28
2022-10-18T01:00:18.736Z,97867.00
2022-10-18T01:02:47.208Z,97866.28
2022-10-18T01:05:17.083Z,97871.63
2022-10-18T01:08:21.635Z,97866.44
2022-10-18T01:10:48.970Z,97867.31
2022-10-18T01:13:46.723Z,97869.50
2022-10-18T01:16:46.250Z,97836.09
2022-10-18T01:19:47.849Z,97858.59
2022-10-18T01:22:42.081Z,97851.13
2022-10-18T01:25:33.607Z,97853.19
2022-10-18T01:28:26.309Z,97864.63
2022-10-18T01:31:05.321Z,97855.31
2022-10-18T01:33:46.400Z,97853.34
2022-10-18T01:36:24.121Z,97847.34
2022-10-18T01:38:54.686Z,97846.56
2022-10-18T01:41:25.550Z,97841.53
2022-10-18T01:43:57.695Z,97825.66
2022-10-18T01:46:26.810Z,97830.19
2022-10-18T01:48:55.626Z,97821.41
2022-10-18T01:51:33.601Z,97817.34
2022-10-18T01:54:01.427Z,97827.50
2022-10-18T01:57:07.142Z,97826.56
2022-10-18T01:59:41.047Z,97832.72
2022-10-18T02:02:26.984Z,97809.06
2022-10-18T02:05:03.438Z,97814.44
2022-10-18T02:08:12.430Z,97821.09
2022-10-18T02:10:50.068Z,97803.84
2022-10-18T02:13:20.854Z,97797.34
2022-10-18T02:16:14.307Z,97812.03
2022-10-18T02:18:46.400Z,97806.13
2022-10-18T02:21:17.931Z,97780.28
2022-10-18T02:23:49.008Z,97797.72
2022-10-18T02:26:17.207Z,97792.16
2022-10-18T02:28:46.297Z,97786.88
2022-10-18T02:31:13.774Z,97786.81
2022-10-18T02:33:56.106Z,97788.59
2022-10-18T02:36:38.365Z,97791.72
2022-10-18T02:39:11.835Z,97790.06
2022-10-18T02:41:39.363Z,97787.16
2022-10-18T02:44:06.729Z,97783.72
2022-10-18T02:46:35.187Z,97783.03
2022-10-18T02:49:02.668Z,97782.19
2022-10-18T02:51:29.989Z,97789.09
2022-10-18T02:53:57.447Z,97776.78
2022-10-18T02:56:24.941Z,97779.44
2022-10-18T02:58:52.315Z,97788.66
2022-10-18T03:01:19.778Z,97778.31
2022-10-18T03:03:47.301Z,97777.94
2022-10-18T03:06:14.615Z,97773.69
2022-10-18T03:08:42.024Z,97780.69
2022-10-18T03:11:09.518Z,97773.88
2022-10-18T03:13:37.100Z,97783.25
2022-10-18T03:16:04.740Z,97770.72
2022-10-18T03:18:32.106Z,97772.03
2022-10-18T03:20:59.635Z,97768.31
2022-10-18T03:23:27.074Z,97763.06
2022-10-18T03:25:54.444Z,97767.13
2022-10-18T03:28:21.822Z,97765.09
2022-10-18T03:30:49.214Z,97765.84
2022-10-18T03:33:17.344Z,97768.88
2022-10-18T03:35:44.656Z,97766.06
2022-10-18T03:38:12.146Z,97764.41
2022-10-18T03:40:39.475Z,97761.84
2022-10-18T03:43:06.919Z,97759.34
2022-10-18T03:45:34.252Z,97761.75
2022-10-18T03:48:01.710Z,97754.06
2022-10-18T03:50:29.281Z,97748.25
2022-10-18T03:52:56.715Z,97744.75
2022-10-18T03:55:24.241Z,97738.81
2022-10-18T03:57:51.680Z,97735.16
2022-10-18T04:00:19.113Z,97740.06
2022-10-18T04:02:46.783Z,97747.63
2022-10-18T04:05:14.951Z,97739.50
2022-10-18T04:07:42.348Z,97735.41
2022-10-18T04:10:09.932Z,97732.31
2022-10-18T04:12:37.467Z,97722.28
2022-10-18T04:15:05.187Z,97721.00
2022-10-18T04:17:32.802Z,97726.50
2022-10-18T04:20:00.600Z,97718.19
2022-10-18T04:22:27.943Z,97707.97
2022-10-18T04:24:57.052Z,97713.09
2022-10-18T04:27:24.778Z,97711.56
2022-10-18T04:29:52.112Z,97704.69
2022-10-18T04:32:19.507Z,97700.75
2022-10-18T04:34:46.957Z,97690.59
2022-10-18T04:37:14.446Z,97690.38
2022-10-18T04:39:49.840Z,97701.09
2022-10-18T04:42:20.258Z,97687.78
2022-10-18T04:44:47.706Z,97695.56
2022-10-18T04:47:15.544Z,97690.84
2022-10-18T04:49:43.027Z,97687.97
2022-10-18T04:52:10.608Z,97677.50
2022-10-18T04:54:38.071Z,97678.09
2022-10-18T04:57:05.533Z,97680.28
2022-10-18T04:59:32.930Z,97683.41
2022-10-18T05:02:00.527Z,97683.25
2022-10-18T05:04:27.931Z,97670.00
2022-10-18T05:06:55.383Z,97665.81
2022-10-18T05:09:24.943Z,97661.63
2022-10-18T05:11:52.390Z,97663.81
2022-10-18T05:14:19.720Z,97670.22
2022-10-18T05:16:47.173Z,97663.53
2022-10-18T05:19:14.519Z,97664.47
2022-10-18T05:21:41.911Z,97657.22
2022-10-18T05:24:12.039Z,97661.56
2022-10-18T05:26:39.500Z,97646.59
2022-10-18T05:29:07.201Z,97651.75
2022-10-18T05:31:34.811Z,97642.63
2022-10-18T05:34:02.538Z,97640.94
2022-10-18T05:36:30.075Z,97642.97
2022-10-18T05:39:00.946Z,97649.59
2022-10-18T05:41:32.119Z,97633.66
2022-10-18T05:43:59.628Z,97631.78
2022-10-18T05:46:26.924Z,97638.91
2022-10-18T05:48:54.303Z,97625.81
2022-10-18T05:51:21.659Z,97634.03
2022-10-18T05:53:49.105Z,97633.25
2022-10-18T05:56:16.478Z,97631.41
2022-10-18T05:58:43.878Z,97626.47
2022-10-18T06:01:11.316Z,97619.97
2022-10-18T06:03:38.776Z,97616.78
2022-10-18T06:06:09.488Z,97629.41
2022-10-18T06:08:38.006Z,97614.50
2022-10-18T06:11:11.179Z,97614.59
2022-10-18T06:13:50.115Z,97610.06
2022-10-18T06:16:20.521Z,97602.50
2022-10-18T06:18:55.365Z,97609.44
2022-10-18T06:21:24.463Z,97601.53
2022-10-18T06:23:59.330Z,97603.81
2022-10-18T06:26:28.148Z,97601.50
2022-10-18T06:28:55.633Z,97589.94
2022-10-18T06:31:23.182Z,97591.63
2022-10-18T06:33:50.872Z,97581.88
2022-10-18T06:36:25.297Z,97587.56
2022-10-18T06:38:53.110Z,97589.69
2022-10-18T06:41:20.835Z,97585.63
2022-10-18T06:43:53.517Z,97595.56
2022-10-18T06:46:21.017Z,97584.63
2022-10-18T06:48:48.435Z,97590.91
2022-10-18T06:51:15.775Z,97589.38
2022-10-18T06:53:53.455Z,97588.09
2022-10-18T06:56:30.841Z,97585.94
2022-10-18T07:01:27.098Z,97548.97
2022-10-18T07:03:55.497Z,97569.97
2022-10-18T07:06:24.118Z,97573.81
2022-10-18T07:08:55.216Z,97570.50
2022-10-18T07:11:25.394Z,97564.25
2022-10-18T07:13:54.807Z,97564.81
2022-10-18T07:16:22.238Z,97556.91
2022-10-18T07:18:51.645Z,97560.13
2022-10-18T07:21:22.261Z,97555.59
2022-10-18T07:23:51.082Z,97555.09
2022-10-18T07:26:22.955Z,97548.97
2022-10-18T07:28:58.217Z,97539.38
2022-10-18T07:31:26.361Z,97543.28
2022-10-18T07:33:54.551Z,97542.72
2022-10-18T07:36:22.498Z,97512.03
2022-10-18T07:38:52.186Z,97518.78
2022-10-18T07:41:19.918Z,97514.94
2022-10-18T07:43:51.046Z,97515.53
2022-10-18T07:46:20.295Z,97504.50
2022-10-18T07:48:47.963Z,97502.19
2022-10-18T07:51:15.832Z,97508.84
2022-10-18T07:53:43.315Z,97516.97
2022-10-18T07:56:16.645Z,97516.41
2022-10-18T07:58:44.404Z,97506.81
2022-10-18T08:01:12.762Z,97513.03
2022-10-18T08:03:42.198Z,97517.25
2022-10-18T08:06:12.077Z,97519.16
2022-10-18T08:08:40.844Z,97508.19
2022-10-18T08:11:11.775Z,97522.09
2022-10-18T08:13:39.270Z,97510.13
2022-10-18T08:16:09.089Z,97521.09
2022-10-18T08:18:37.495Z,97515.03
2022-10-18T08:21:07.499Z,97517.06
2022-10-18T08:23:35.685Z,97515.19
2022-10-18T08:26:05.341Z,97516.47
2022-10-18T08:28:33.268Z,97508.41
2022-10-18T08:31:04.991Z,97513.75
2022-10-18T08:33:33.156Z,97517.66
2022-10-18T08:36:02.163Z,97526.03
2022-10-18T08:38:31.665Z,97522.72
2022-10-18T08:41:02.722Z,97519.28
2022-10-18T08:43:56.595Z,97518.44
2022-10-18T08:46:24.134Z,97514.50
2022-10-18T08:48:55.356Z,97516.91
2022-10-18T08:51:45.162Z,97503.91
2022-10-18T08:54:14.961Z,97506.47
2022-10-18T08:56:46.086Z,97500.28
2022-10-18T08:59:14.508Z,97514.22
2022-10-18T09:02:01.361Z,97504.22
2022-10-18T09:04:47.579Z,97499.09
2022-10-18T09:07:33.583Z,97501.94
2022-10-18T09:10:21.059Z,97508.66
2022-10-18T09:13:00.367Z,97508.66
2022-10-18T09:15:45.706Z,97508.59
2022-10-18T09:18:45.247Z,97511.41
2022-10-18T09:21:15.376Z,97511.44
2022-10-18T09:24:13.505Z,97500.88
2022-10-18T09:26:58.126Z,97499.13
2022-10-18T09:29:53.314Z,97498.81
2022-10-18T09:32:56.070Z,97496.91
2022-10-18T09:35:29.304Z,97497.78
2022-10-18T09:38:04.900Z,97496.63
2022-10-18T09:40:39.989Z,97500.66
2022-10-18T09:43:15.134Z,97503.44
2022-10-18T09:45:46.111Z,97482.16
2022-10-18T09:48:29.341Z,97477.81
2022-10-18T09:50:58.791Z,97457.78
2022-10-18T09:53:37.240Z,97472.81
2022-10-18T09:56:14.923Z,97464.31
2022-10-18T09:58:48.033Z,97468.66
2022-10-18T10:01:21.697Z,97464.47
2022-10-18T10:03:49.221Z,97460.28
2022-10-18T10:06:23.472Z,97457.16
2022-10-18T10:08:58.860Z,97445.53
2022-10-18T10:11:33.326Z,97456.81
2022-10-18T10:14:13.233Z,97436.28
2022-10-18T10:17:03.603Z,97444.38
2022-10-18T10:19:55.065Z,97435.09
2022-10-18T10:22:32.037Z,97445.59
2022-10-18T10:25:00.043Z,97437.91
2022-10-18T10:27:41.679Z,97440.56
2022-10-18T10:30:27.451Z,97430.78
2022-10-18T10:32:57.081Z,97423.97
2022-10-18T10:35:59.886Z,97423.88
2022-10-18T10:38:30.280Z,97420.09
2022-10-18T10:40:58.677Z,97410.09
2022-10-18T10:43:38.218Z,97418.25
2022-10-18T10:46:11.850Z,97388.00
2022-10-18T10:49:15.356Z,97406.94
2022-10-18T10:51:45.169Z,97407.06
2022-10-18T10:54:17.452Z,97400.09
2022-10-18T10:57:20.164Z,97405.88
2022-10-18T10:59:54.506Z,97400.13
2022-10-18T11:02:36.378Z,97393.13
2022-10-18T11:05:26.096Z,97393.06
2022-10-18T11:07:57.973Z,97391.63
2022-10-18T11:10:29.733Z,97379.59
2022-10-18T11:13:35.846Z,97378.03
2022-10-18T11:16:43.428Z,97386.94
2022-10-18T11:19:37.954Z,97378.88
2022-10-18T11:22:10.759Z,97380.81
2022-10-18T11:24:38.370Z,97377.00
2022-10-18T11:27:19.558Z,97371.56
2022-10-18T11:30:03.626Z,97371.56
2022-10-18T11:32:58.782Z,97371.22
2022-10-18T11:35:42.163Z,97369.28
2022-10-18T11:38:18.471Z,97366.81
2022-10-18T11:41:14.130Z,97353.34
2022-10-18T11:44:12.253Z,97364.63
2022-10-18T11:47:03.638Z,97376.25
2022-10-18T11:50:04.407Z,97365.78
2022-10-18T11:52:47.640Z,97360.44
2022-10-18T11:55:56.663Z,97351.88
2022-10-18T11:58:54.339Z,97354.59
2022-10-18T12:01:28.852Z,97354.25
2022-10-18T12:04:18.061Z,97346.09
2022-10-18T12:06:49.429Z,97352.34
2022-10-18T12:09:37.590Z,97345.72
2022-10-18T12:12:26.997Z,97321.00
2022-10-18T12:14:59.754Z,97340.72
2022-10-18T12:17:49.857Z,97330.25
2022-10-18T12:20:40.636Z,97333.03
2022-10-18T12:23:20.807Z,97330.28
2022-10-18T12:25:55.749Z,97328.38
2022-10-18T12:28:41.513Z,97322.53
2022-10-18T12:31:27.044Z,97315.22
2022-10-18T12:33:58.848Z,97312.50
2022-10-18T12:36:47.610Z,97304.38
2022-10-18T12:39:58.438Z,97308.22
2022-10-18T12:42:33.941Z,97303.22
2022-10-18T12:45:33.503Z,97300.47
2022-10-18T12:48:08.932Z,97303.56
2022-10-18T12:50:42.811Z,97307.47
2022-10-18T12:53:10.264Z,97300.53
2022-10-18T12:58:15.880Z,97290.47
2022-10-18T13:00:43.180Z,97290.09
2022-10-18T13:03:13.370Z,97286.59
2022-10-18T13:05:55.568Z,97291.25
2022-10-18T13:08:35.484Z,97296.25
2022-10-18T13:11:09.227Z,97290.47
2022-10-18T13:13:55.536Z,97278.81
2022-10-18T13:16:28.640Z,97280.03
2022-10-18T13:19:10.064Z,97286.59
2022-10-18T13:22:14.987Z,97287.75
2022-10-18T13:25:01.933Z,97286.25
2022-10-18T13:27:51.642Z,97282.38
2022-10-18T13:30:19.026Z,97282.78
2022-10-18T13:33:14.903Z,97287.00
2022-10-18T13:35:50.609Z,97287.44
2022-10-18T13:38:38.501Z,97288.19
2022-10-18T13:41:08.556Z,97271.22
2022-10-18T13:43:58.388Z,97274.69
2022-10-18T13:46:35.157Z,97280.88
2022-10-18T13:49:17.693Z,97285.91
2022-10-18T13:52:33.016Z,97289.75
2022-10-18T13:55:06.539Z,97280.50
2022-10-18T13:58:06.567Z,97270.03
2022-10-18T14:00:56.240Z,97264.63
2022-10-18T14:03:51.951Z,97268.13
2022-10-18T14:06:25.274Z,97261.53
2022-10-18T14:09:26.117Z,97252.19
2022-10-18T14:12:14.903Z,97238.72
2022-10-18T14:14:42.318Z,97252.66
2022-10-18T14:20:21.082Z,97245.69
2022-10-18T14:22:57.112Z,97245.69
2022-10-18T14:25:30.957Z,97239.09
2022-10-18T14:28:06.112Z,97238.66
2022-10-18T14:30:36.508Z,97248.78
2022-10-18T14:33:04.458Z,97238.31
2022-10-18T14:35:35.481Z,97239.91
2022-10-18T14:38:03.098Z,97239.16
2022-10-18T14:40:32.589Z,97220.19
2022-10-18T14:43:15.074Z,97236.81
2022-10-18T14:45:43.410Z,97231.41
2022-10-18T14:48:16.857Z,97231.78
2022-10-18T14:50:47.665Z,97215.53
2022-10-18T14:53:22.215Z,97219.00
2022-10-18T14:56:01.056Z,97220.94
2022-10-18T14:58:28.940Z,97216.72
2022-10-18T15:00:56.780Z,97209.78
2022-10-18T15:03:24.896Z,97203.97
2022-10-18T15:06:01.429Z,97200.47
2022-10-18T15:08:42.654Z,97193.53
2022-10-18T15:11:14.522Z,97190.84
2022-10-18T15:13:50.852Z,97178.44
2022-10-18T15:16:21.060Z,97175.34
2022-10-18T15:19:24.779Z,97180.72
2022-10-18T15:25:16.983Z,97178.84
2022-10-18T15:27:53.714Z,97174.22
2022-10-18T15:30:27.692Z,97169.59
2022-10-18T15:33:01.371Z,97167.63
2022-10-18T15:35:34.919Z,97174.59
2022-10-18T15:38:15.231Z,97166.84
2022-10-18T15:40:43.416Z,97161.09
2022-10-18T15:43:26.184Z,97165.72
2022-10-18T15:45:58.837Z,97152.97
2022-10-18T15:48:38.924Z,97150.28
2022-10-18T15:51:26.703Z,97148.34
2022-10-18T15:53:55.385Z,97144.47
2022-10-18T15:56:30.860Z,97151.81
2022-10-18T15:59:01.124Z,97148.34
2022-10-18T16:01:37.400Z,97138.69
2022-10-18T16:04:21.129Z,97132.13
2022-10-18T16:06:48.756Z,97131.72
2022-10-18T16:09:18.364Z,97130.59
2022-10-18T16:11:46.308Z,97119.78
2022-10-18T16:14:13.979Z,97121.31
2022-10-18T16:16:41.477Z,97110.50
2022-10-18T16:19:10.351Z,97105.84
2022-10-18T16:21:39.411Z,97118.22
2022-10-18T16:24:07.166Z,97109.34
2022-10-18T16:26:35.508Z,97112.44
2022-10-18T16:29:03.661Z,97109.34
2022-10-18T16:31:33.940Z,97103.94
2022-10-18T16:34:02.468Z,97100.06
2022-10-18T16:36:32.559Z,97099.69
2022-10-18T16:39:02.714Z,97085.78
2022-10-18T16:41:30.147Z,97083.88
2022-10-18T16:43:57.587Z,97088.50
2022-10-18T16:46:31.189Z,97083.84
2022-10-18T16:48:59.466Z,97086.19
2022-10-18T16:51:27.163Z,97085.78
2022-10-18T16:53:55.006Z,97083.09
2022-10-18T16:56:31.539Z,97079.22
2022-10-18T16:58:59.856Z,97076.94
2022-10-18T17:01:27.398Z,97069.59
2022-10-18T17:03:55.580Z,97064.16
2022-10-18T17:06:25.835Z,97075.38
2022-10-18T17:08:54.520Z,97062.25
2022-10-18T17:11:24.973Z,97061.84
2022-10-18T17:13:52.982Z,97056.84
2022-10-18T17:16:33.118Z,97046.78
2022-10-18T17:19:05.303Z,97050.66
2022-10-18T17:21:33.868Z,97044.09
2022-10-18T17:24:04.485Z,97035.59
2022-10-18T17:26:32.878Z,97041.78
2022-10-18T17:29:04.555Z,97038.28
2022-10-18T17:31:33.209Z,97034.84
2022-10-18T17:34:02.160Z,97035.97
2022-10-18T17:36:31.937Z,97021.72
2022-10-18T17:39:00.109Z,97029.03
2022-10-18T17:41:27.942Z,97022.06
2022-10-18T17:43:55.617Z,97027.06
2022-10-18T17:46:23.925Z,97009.72
2022-10-18T17:48:51.536Z,97027.50
2022-10-18T17:51:18.965Z,97015.91
2022-10-18T17:53:46.668Z,97020.94
2022-10-18T17:56:14.910Z,97005.09
2022-10-18T17:58:43.838Z,97010.88
2022-10-18T18:01:18.791Z,97005.47
2022-10-18T18:03:48.073Z,97010.13
2022-10-18T18:06:21.150Z,96999.28
2022-10-18T18:08:49.604Z,97005.09
2022-10-18T18:11:18.100Z,96993.91
2022-10-18T18:13:45.529Z,96991.22
2022-10-18T18:16:17.326Z,96981.94
2022-10-18T18:18:46.975Z,96977.69
2022-10-18T18:21:14.570Z,96976.16
2022-10-18T18:23:42.201Z,96969.59
2022-10-18T18:26:09.778Z,96974.97
2022-10-18T18:28:37.565Z,96969.94
2022-10-18T18:31:09.656Z,96974.56
2022-10-18T18:33:37.737Z,96970.72
2022-10-18T18:36:06.854Z,96965.72
2022-10-18T18:38:36.494Z,96959.53
2022-10-18T18:41:12.313Z,96961.88
2022-10-18T18:43:44.171Z,96953.72
2022-10-18T18:46:13.215Z,96965.34
2022-10-18T18:48:41.294Z,96944.13
2022-10-18T18:51:13.772Z,96953.38
2022-10-18T18:53:41.870Z,96944.13
2022-10-18T18:56:13.069Z,96933.69
2022-10-18T18:58:44.456Z,96937.56
2022-10-18T19:01:19.155Z,96925.19
2022-10-18T19:03:50.245Z,96931.34
2022-10-18T19:06:23.456Z,96923.25
2022-10-18T19:08:54.281Z,96921.34
2022-10-18T19:11:23.152Z,96913.19
2022-10-18T19:13:50.611Z,96910.91
2022-10-18T19:16:38.745Z,96906.66
2022-10-18T19:19:18.541Z,96906.22
2022-10-18T19:21:48.182Z,96904.69
2022-10-18T19:24:16.235Z,96899.31
2022-10-18T19:26:56.297Z,96894.25
2022-10-18T19:29:24.969Z,96899.69
2022-10-18T19:31:55.087Z,96897.38
2022-10-18T19:34:24.992Z,96886.97
2022-10-18T19:36:52.869Z,96887.75
2022-10-18T19:39:28.269Z,96884.22
2022-10-18T19:41:59.595Z,96882.72
2022-10-18T19:44:30.836Z,96883.88
2022-10-18T19:46:59.012Z,96878.09
2022-10-18T19:49:28.849Z,96871.53
2022-10-18T19:51:56.814Z,96857.63
2022-10-18T19:54:24.783Z,96864.59
2022-10-18T19:56:52.234Z,96859.56
2022-10-18T19:59:20.073Z,96860.34
2022-10-18T20:01:47.534Z,96846.81
2022-10-18T20:04:16.530Z,96846.81
2022-10-18T20:06:44.364Z,96836.41
2022-10-18T20:09:16.217Z,96841.81
2022-10-18T20:11:46.906Z,96834.06
2022-10-18T20:14:14.330Z,96829.47
2022-10-18T20:16:43.090Z,96829.88
2022-10-18T20:19:10.818Z,96834.91
2022-10-18T20:21:39.674Z,96825.25
2022-10-18T20:24:09.549Z,96817.16
2022-10-18T20:26:36.913Z,96814.06
2022-10-18T20:29:04.775Z,96807.50
2022-10-18T20:31:35.816Z,96815.63
2022-10-18T20:34:06.731Z,96812.13
2022-10-18T20:36:35.013Z,96807.16
2022-10-18T20:39:04.090Z,96806.34
2022-10-18T20:41:34.483Z,96798.25
2022-10-18T20:44:04.554Z,96795.16
2022-10-18T20:46:34.735Z,96797.88
2022-10-18T20:49:03.030Z,96795.94
2022-10-18T20:51:30.667Z,96791.69
2022-10-18T20:53:58.467Z,96787.88
2022-10-18T20:56:29.062Z,96788.63
2022-10-18T20:58:58.325Z,96782.84
2022-10-18T21:01:28.468Z,96781.66
2022-10-18T21:03:57.759Z,96774.72
2022-10-18T21:06:30.212Z,96767.81
2022-10-18T21:09:00.528Z,96777.44
2022-10-18T21:11:30.241Z,96769.31
2022-10-18T21:14:00.400Z,96761.59
2022-10-18T21:16:27.912Z,96755.44
2022-10-18T21:18:55.801Z,96754.63
2022-10-18T21:21:24.949Z,96757.72
2022-10-18T21:23:52.912Z,96749.25
2022-10-18T21:26:22.933Z,96755.00
2022-10-18T21:28:52.082Z,96751.16
2022-10-18T21:31:22.064Z,96744.59
2022-10-18T21:33:54.436Z,96740.69
2022-10-18T21:36:22.250Z,96737.66
2022-10-18T21:38:50.491Z,96739.19
2022-10-18T21:41:20.358Z,96736.09
2022-10-18T21:43:50.533Z,96727.19
2022-10-18T21:46:19.678Z,96721.81
2022-10-18T21:48:49.469Z,96723.78
2022-10-18T21:51:19.648Z,96715.66
2022-10-18T21:53:49.145Z,96704.13
2022-10-18T21:56:18.907Z,96704.50
2022-10-18T21:58:46.873Z,96711.47
2022-10-18T22:01:19.206Z,96691.75
2022-10-18T22:03:49.252Z,96691.38
2022-10-18T22:06:17.854Z,96695.66
2022-10-18T22:08:57.003Z,96689.03
2022-10-18T22:11:30.721Z,96679.41
2022-10-18T22:13:58.573Z,96676.00
2022-10-18T22:16:26.786Z,96674.09
2022-10-18T22:18:58.733Z,96668.63
2022-10-18T22:21:26.746Z,96659.78
2022-10-18T22:23:57.228Z,96661.69
2022-10-18T22:26:36.727Z,96662.41
2022-10-18T22:29:07.302Z,96662.09
2022-10-18T22:31:38.696Z,96650.47
2022-10-18T22:34:09.251Z,96653.19
2022-10-18T22:36:37.443Z,96648.16
2022-10-18T22:39:06.291Z,96648.16
2022-10-18T22:41:34.909Z,96642.41
2022-10-18T22:44:03.834Z,96637.78
2022-10-18T22:46:33.144Z,96634.31
2022-10-18T22:49:00.516Z,96626.19
2022-10-18T22:51:28.124Z,96624.63
2022-10-18T22:53:55.884Z,96623.47
2022-10-18T22:56:24.132Z,96621.13
2022-10-18T22:58:51.767Z,96611.53
2022-10-18T23:01:21.538Z,96610.38
2022-10-18T23:03:56.631Z,96609.91
2022-10-18T23:06:26.979Z,96601.06
2022-10-18T23:08:56.669Z,96591.81
2022-10-18T23:11:25.193Z,96587.94
2022-10-18T23:13:52.795Z,96580.66
2022-10-18T23:16:21.096Z,96588.00
2022-10-18T23:18:56.077Z,96586.81
2022-10-18T23:21:25.580Z,96579.56
2022-10-18T23:23:54.247Z,96571.81
2022-10-18T23:26:27.615Z,96568.34
2022-10-18T23:28:55.575Z,96563.38
2022-10-18T23:31:32.945Z,96565.59
2022-10-18T23:34:04.507Z,96561.81
2022-10-18T23:36:33.528Z,96557.16
2022-10-18T23:39:02.021Z,96548.31
2022-10-18T23:41:29.870Z,96555.28
2022-10-18T23:43:57.369Z,96534.84
2022-10-18T23:46:25.158Z,96536.38
2022-10-18T23:48:52.544Z,96540.25
2022-10-18T23:51:20.021Z,96537.97
2022-10-18T23:53:47.471Z,96520.63
2022-10-18T23:56:16.730Z,96527.88
2022-10-18T23:58:45.385Z,96515.56
